sensor_id;sensor_type;location;lat;lon;timestamp;P1;durP1;ratioP1;P2;durP2;ratioP2
58308;SDS011;44117;57.142;24.826;2022-11-15T00:00:58;25.70;;;7.60;;
58308;SDS011;44117;57.142;24.826;2022-11-15T00:03:26;27.90;;;7.53;;
58308;SDS011;44117;57.142;24.826;2022-11-15T00:05:54;21.80;;;7.20;;
58308;SDS011;44117;57.142;24.826;2022-11-15T00:08:29;28.85;;;9.02;;
58308;SDS011;44117;57.142;24.826;2022-11-15T00:11:00;34.20;;;10.52;;
58308;SDS011;44117;57.142;24.826;2022-11-15T00:13:29;24.85;;;7.88;;
58308;SDS011;44117;57.142;24.826;2022-11-15T00:15:58;29.77;;;8.70;;
58308;SDS011;44117;57.142;24.826;2022-11-15T00:18:26;26.33;;;7.53;;
58308;SDS011;44117;57.142;24.826;2022-11-15T00:20:54;17.75;;;5.85;;
58308;SDS011;44117;57.142;24.826;2022-11-15T00:23:21;15.80;;;6.35;;
58308;SDS011;44117;57.142;24.826;2022-11-15T00:25:55;24.02;;;6.68;;
58308;SDS011;44117;57.142;24.826;2022-11-15T00:28:25;25.88;;;7.38;;
58308;SDS011;44117;57.142;24.826;2022-11-15T00:30:53;25.83;;;7.65;;
58308;SDS011;44117;57.142;24.826;2022-11-15T00:33:26;22.33;;;6.78;;
58308;SDS011;44117;57.142;24.826;2022-11-15T00:35:53;24.67;;;7.63;;
58308;SDS011;44117;57.142;24.826;2022-11-15T00:38:25;21.00;;;7.00;;
58308;SDS011;44117;57.142;24.826;2022-11-15T00:40:56;21.73;;;6.63;;
58308;SDS011;44117;57.142;24.826;2022-11-15T00:43:23;23.92;;;7.32;;
58308;SDS011;44117;57.142;24.826;2022-11-15T00:45:51;21.92;;;7.68;;
58308;SDS011;44117;57.142;24.826;2022-11-15T00:48:18;23.48;;;7.07;;
58308;SDS011;44117;57.142;24.826;2022-11-15T00:50:45;21.08;;;7.22;;
58308;SDS011;44117;57.142;24.826;2022-11-15T00:53:13;22.10;;;6.50;;
58308;SDS011;44117;57.142;24.826;2022-11-15T00:55:40;28.23;;;7.88;;
58308;SDS011;44117;57.142;24.826;2022-11-15T00:58:07;24.75;;;6.63;;
58308;SDS011;44117;57.142;24.826;2022-11-15T01:00:34;25.05;;;7.35;;
58308;SDS011;44117;57.142;24.826;2022-11-15T01:03:01;19.80;;;6.28;;
58308;SDS011;44117;57.142;24.826;2022-11-15T01:05:29;19.45;;;7.13;;
58308;SDS011;44117;57.142;24.826;2022-11-15T01:07:56;23.33;;;6.70;;
58308;SDS011;44117;57.142;24.826;2022-11-15T01:10:24;23.42;;;6.15;;
58308;SDS011;44117;57.142;24.826;2022-11-15T01:12:52;27.13;;;7.88;;
58308;SDS011;44117;57.142;24.826;2022-11-15T01:15:19;25.95;;;8.60;;
58308;SDS011;44117;57.142;24.826;2022-11-15T01:17:46;21.45;;;7.57;;
58308;SDS011;44117;57.142;24.826;2022-11-15T01:20:14;21.83;;;6.38;;
58308;SDS011;44117;57.142;24.826;2022-11-15T01:22:41;25.63;;;9.13;;
58308;SDS011;44117;57.142;24.826;2022-11-15T01:25:08;30.67;;;7.85;;
58308;SDS011;44117;57.142;24.826;2022-11-15T01:27:35;36.67;;;9.65;;
58308;SDS011;44117;57.142;24.826;2022-11-15T01:30:03;49.08;;;8.52;;
58308;SDS011;44117;57.142;24.826;2022-11-15T01:32:31;60.65;;;9.25;;
58308;SDS011;44117;57.142;24.826;2022-11-15T01:34:58;27.73;;;7.47;;
58308;SDS011;44117;57.142;24.826;2022-11-15T01:37:25;24.55;;;7.55;;
58308;SDS011;44117;57.142;24.826;2022-11-15T01:39:52;32.17;;;7.90;;
58308;SDS011;44117;57.142;24.826;2022-11-15T01:42:20;49.67;;;7.97;;
58308;SDS011;44117;57.142;24.826;2022-11-15T01:44:47;56.58;;;9.40;;
58308;SDS011;44117;57.142;24.826;2022-11-15T01:47:59;59.60;;;8.77;;
58308;SDS011;44117;57.142;24.826;2022-11-15T01:50:21;28.48;;;6.93;;
58308;SDS011;44117;57.142;24.826;2022-11-15T01:52:51;26.60;;;6.75;;
58308;SDS011;44117;57.142;24.826;2022-11-15T01:55:20;121.05;;;11.77;;
58308;SDS011;44117;57.142;24.826;2022-11-15T01:57:53;96.97;;;10.52;;
58308;SDS011;44117;57.142;24.826;2022-11-15T02:00:24;96.75;;;10.85;;
58308;SDS011;44117;57.142;24.826;2022-11-15T02:02:51;132.90;;;16.38;;
58308;SDS011;44117;57.142;24.826;2022-11-15T02:05:18;191.05;;;15.45;;
58308;SDS011;44117;57.142;24.826;2022-11-15T02:07:46;264.40;;;18.13;;
58308;SDS011;44117;57.142;24.826;2022-11-15T02:10:18;364.83;;;27.23;;
58308;SDS011;44117;57.142;24.826;2022-11-15T02:12:47;233.02;;;17.17;;
58308;SDS011;44117;57.142;24.826;2022-11-15T02:15:15;226.27;;;14.98;;
58308;SDS011;44117;57.142;24.826;2022-11-15T02:20:48;268.83;;;20.63;;
58308;SDS011;44117;57.142;24.826;2022-11-15T02:23:38;385.95;;;22.17;;
58308;SDS011;44117;57.142;24.826;2022-11-15T02:26:26;231.35;;;14.77;;
58308;SDS011;44117;57.142;24.826;2022-11-15T02:29:03;164.52;;;13.18;;
58308;SDS011;44117;57.142;24.826;2022-11-15T02:32:21;423.85;;;27.67;;
58308;SDS011;44117;57.142;24.826;2022-11-15T02:34:42;456.27;;;28.92;;
58308;SDS011;44117;57.142;24.826;2022-11-15T02:40:49;322.73;;;21.80;;
58308;SDS011;44117;57.142;24.826;2022-11-15T02:42:56;269.75;;;18.48;;
58308;SDS011;44117;57.142;24.826;2022-11-15T02:46:07;407.08;;;26.55;;
58308;SDS011;44117;57.142;24.826;2022-11-15T02:48:41;370.90;;;23.52;;
58308;SDS011;44117;57.142;24.826;2022-11-15T02:51:10;349.90;;;21.48;;
58308;SDS011;44117;57.142;24.826;2022-11-15T02:53:39;309.83;;;18.88;;
58308;SDS011;44117;57.142;24.826;2022-11-15T02:56:07;318.92;;;21.77;;
58308;SDS011;44117;57.142;24.826;2022-11-15T03:01:37;350.70;;;22.88;;
58308;SDS011;44117;57.142;24.826;2022-11-15T03:04:18;307.92;;;20.35;;
58308;SDS011;44117;57.142;24.826;2022-11-15T03:09:38;336.60;;;24.50;;
58308;SDS011;44117;57.142;24.826;2022-11-15T03:12:25;227.82;;;17.73;;
58308;SDS011;44117;57.142;24.826;2022-11-15T03:14:58;344.92;;;24.85;;
58308;SDS011;44117;57.142;24.826;2022-11-15T03:17:39;385.25;;;29.85;;
58308;SDS011;44117;57.142;24.826;2022-11-15T03:20:13;288.40;;;17.77;;
58308;SDS011;44117;57.142;24.826;2022-11-15T03:22:44;340.88;;;20.88;;
58308;SDS011;44117;57.142;24.826;2022-11-15T03:25:16;334.98;;;21.13;;
58308;SDS011;44117;57.142;24.826;2022-11-15T03:27:49;278.75;;;23.27;;
58308;SDS011;44117;57.142;24.826;2022-11-15T03:30:19;282.33;;;20.55;;
58308;SDS011;44117;57.142;24.826;2022-11-15T03:32:49;329.92;;;22.98;;
58308;SDS011;44117;57.142;24.826;2022-11-15T03:35:23;292.57;;;24.37;;
58308;SDS011;44117;57.142;24.826;2022-11-15T03:38:11;295.92;;;19.23;;
58308;SDS011;44117;57.142;24.826;2022-11-15T03:40:51;328.48;;;21.92;;
58308;SDS011;44117;57.142;24.826;2022-11-15T03:43:34;254.30;;;16.08;;
58308;SDS011;44117;57.142;24.826;2022-11-15T03:46:44;234.32;;;14.13;;
58308;SDS011;44117;57.142;24.826;2022-11-15T03:49:25;140.60;;;12.80;;
58308;SDS011;44117;57.142;24.826;2022-11-15T03:52:00;254.00;;;16.33;;
58308;SDS011;44117;57.142;24.826;2022-11-15T03:54:30;168.80;;;13.20;;
58308;SDS011;44117;57.142;24.826;2022-11-15T03:56:57;250.10;;;19.25;;
58308;SDS011;44117;57.142;24.826;2022-11-15T03:59:25;250.18;;;21.25;;
58308;SDS011;44117;57.142;24.826;2022-11-15T04:01:52;190.57;;;16.10;;
58308;SDS011;44117;57.142;24.826;2022-11-15T04:04:19;209.55;;;13.55;;
58308;SDS011;44117;57.142;24.826;2022-11-15T04:06:46;224.05;;;17.85;;
58308;SDS011;44117;57.142;24.826;2022-11-15T04:09:13;242.93;;;18.48;;
58308;SDS011;44117;57.142;24.826;2022-11-15T04:11:41;258.17;;;18.85;;
58308;SDS011;44117;57.142;24.826;2022-11-15T04:14:08;253.63;;;17.88;;
58308;SDS011;44117;57.142;24.826;2022-11-15T04:16:35;197.20;;;16.17;;
58308;SDS011;44117;57.142;24.826;2022-11-15T04:19:10;168.15;;;13.35;;
58308;SDS011;44117;57.142;24.826;2022-11-15T04:21:55;300.88;;;19.23;;
58308;SDS011;44117;57.142;24.826;2022-11-15T04:24:41;335.77;;;22.35;;
58308;SDS011;44117;57.142;24.826;2022-11-15T04:27:08;247.85;;;17.33;;
58308;SDS011;44117;57.142;24.826;2022-11-15T04:29:36;260.30;;;18.45;;
58308;SDS011;44117;57.142;24.826;2022-11-15T04:32:04;283.75;;;18.02;;
58308;SDS011;44117;57.142;24.826;2022-11-15T04:34:32;267.25;;;20.23;;
58308;SDS011;44117;57.142;24.826;2022-11-15T04:37:00;331.50;;;23.38;;
58308;SDS011;44117;57.142;24.826;2022-11-15T04:39:40;239.95;;;19.10;;
58308;SDS011;44117;57.142;24.826;2022-11-15T04:42:08;192.52;;;22.95;;
58308;SDS011;44117;57.142;24.826;2022-11-15T04:44:35;300.83;;;20.20;;
58308;SDS011;44117;57.142;24.826;2022-11-15T04:47:03;315.48;;;22.40;;
58308;SDS011;44117;57.142;24.826;2022-11-15T04:49:30;230.85;;;18.83;;
58308;SDS011;44117;57.142;24.826;2022-11-15T04:51:58;346.58;;;26.40;;
58308;SDS011;44117;57.142;24.826;2022-11-15T04:54:25;366.98;;;26.65;;
58308;SDS011;44117;57.142;24.826;2022-11-15T04:56:52;401.13;;;29.50;;
58308;SDS011;44117;57.142;24.826;2022-11-15T04:59:19;201.57;;;19.67;;
58308;SDS011;44117;57.142;24.826;2022-11-15T05:01:47;481.13;;;39.85;;
58308;SDS011;44117;57.142;24.826;2022-11-15T05:04:14;377.00;;;30.15;;
58308;SDS011;44117;57.142;24.826;2022-11-15T05:06:48;288.33;;;24.67;;
58308;SDS011;44117;57.142;24.826;2022-11-15T05:09:17;359.90;;;26.23;;
58308;SDS011;44117;57.142;24.826;2022-11-15T05:11:45;389.58;;;41.30;;
58308;SDS011;44117;57.142;24.826;2022-11-15T05:14:13;376.75;;;41.38;;
58308;SDS011;44117;57.142;24.826;2022-11-15T05:16:41;306.85;;;28.60;;
58308;SDS011;44117;57.142;24.826;2022-11-15T05:19:09;334.05;;;28.38;;
58308;SDS011;44117;57.142;24.826;2022-11-15T05:21:36;180.35;;;20.38;;
58308;SDS011;44117;57.142;24.826;2022-11-15T05:24:03;405.73;;;29.98;;
58308;SDS011;44117;57.142;24.826;2022-11-15T05:26:31;179.48;;;23.60;;
58308;SDS011;44117;57.142;24.826;2022-11-15T05:28:58;280.73;;;23.77;;
58308;SDS011;44117;57.142;24.826;2022-11-15T05:31:26;425.48;;;32.97;;
58308;SDS011;44117;57.142;24.826;2022-11-15T05:33:54;359.02;;;26.08;;
58308;SDS011;44117;57.142;24.826;2022-11-15T05:36:25;369.08;;;29.30;;
58308;SDS011;44117;57.142;24.826;2022-11-15T05:39:12;307.52;;;23.52;;
58308;SDS011;44117;57.142;24.826;2022-11-15T05:41:40;260.73;;;25.00;;
58308;SDS011;44117;57.142;24.826;2022-11-15T05:44:13;293.07;;;25.47;;
58308;SDS011;44117;57.142;24.826;2022-11-15T05:46:43;304.50;;;30.33;;
58308;SDS011;44117;57.142;24.826;2022-11-15T05:49:12;354.05;;;33.45;;
58308;SDS011;44117;57.142;24.826;2022-11-15T05:51:42;347.73;;;31.23;;
58308;SDS011;44117;57.142;24.826;2022-11-15T05:54:12;359.63;;;36.88;;
58308;SDS011;44117;57.142;24.826;2022-11-15T05:56:40;372.58;;;42.25;;
58308;SDS011;44117;57.142;24.826;2022-11-15T05:59:08;300.23;;;29.40;;
58308;SDS011;44117;57.142;24.826;2022-11-15T06:01:37;338.42;;;31.23;;
58308;SDS011;44117;57.142;24.826;2022-11-15T06:04:05;373.63;;;35.33;;
58308;SDS011;44117;57.142;24.826;2022-11-15T06:06:32;279.35;;;34.03;;
58308;SDS011;44117;57.142;24.826;2022-11-15T06:08:59;338.02;;;35.90;;
58308;SDS011;44117;57.142;24.826;2022-11-15T06:11:27;389.25;;;38.90;;
58308;SDS011;44117;57.142;24.826;2022-11-15T06:13:54;390.60;;;37.95;;
58308;SDS011;44117;57.142;24.826;2022-11-15T06:16:22;379.50;;;65.20;;
58308;SDS011;44117;57.142;24.826;2022-11-15T06:18:49;316.20;;;29.45;;
58308;SDS011;44117;57.142;24.826;2022-11-15T06:21:17;349.63;;;39.38;;
58308;SDS011;44117;57.142;24.826;2022-11-15T06:23:44;287.02;;;31.38;;
58308;SDS011;44117;57.142;24.826;2022-11-15T06:26:11;279.05;;;35.92;;
58308;SDS011;44117;57.142;24.826;2022-11-15T06:28:38;353.02;;;38.38;;
58308;SDS011;44117;57.142;24.826;2022-11-15T06:31:06;459.58;;;34.72;;
58308;SDS011;44117;57.142;24.826;2022-11-15T06:33:38;441.70;;;37.08;;
58308;SDS011;44117;57.142;24.826;2022-11-15T06:36:07;404.98;;;48.33;;
58308;SDS011;44117;57.142;24.826;2022-11-15T06:38:43;457.05;;;36.50;;
58308;SDS011;44117;57.142;24.826;2022-11-15T06:41:11;516.55;;;36.33;;
58308;SDS011;44117;57.142;24.826;2022-11-15T06:43:40;316.58;;;63.40;;
58308;SDS011;44117;57.142;24.826;2022-11-15T06:46:08;279.23;;;26.38;;
58308;SDS011;44117;57.142;24.826;2022-11-15T06:48:35;421.50;;;34.05;;
58308;SDS011;44117;57.142;24.826;2022-11-15T06:51:04;425.70;;;35.88;;
58308;SDS011;44117;57.142;24.826;2022-11-15T06:53:31;507.80;;;80.28;;
58308;SDS011;44117;57.142;24.826;2022-11-15T06:56:00;428.23;;;58.33;;
58308;SDS011;44117;57.142;24.826;2022-11-15T06:58:28;356.45;;;28.67;;
58308;SDS011;44117;57.142;24.826;2022-11-15T07:01:02;283.33;;;29.25;;
58308;SDS011;44117;57.142;24.826;2022-11-15T07:03:35;288.92;;;39.58;;
58308;SDS011;44117;57.142;24.826;2022-11-15T07:06:04;385.42;;;35.67;;
58308;SDS011;44117;57.142;24.826;2022-11-15T07:08:33;295.65;;;26.13;;
58308;SDS011;44117;57.142;24.826;2022-11-15T07:11:02;252.93;;;28.08;;
58308;SDS011;44117;57.142;24.826;2022-11-15T07:13:34;316.67;;;30.35;;
58308;SDS011;44117;57.142;24.826;2022-11-15T07:16:04;334.52;;;29.40;;
58308;SDS011;44117;57.142;24.826;2022-11-15T07:18:34;264.88;;;28.38;;
58308;SDS011;44117;57.142;24.826;2022-11-15T07:21:02;273.95;;;32.75;;
58308;SDS011;44117;57.142;24.826;2022-11-15T07:23:31;348.23;;;29.17;;
58308;SDS011;44117;57.142;24.826;2022-11-15T07:25:59;337.40;;;32.58;;
58308;SDS011;44117;57.142;24.826;2022-11-15T07:28:27;473.52;;;56.17;;
58308;SDS011;44117;57.142;24.826;2022-11-15T07:30:54;361.33;;;34.70;;
58308;SDS011;44117;57.142;24.826;2022-11-15T07:33:22;307.08;;;29.38;;
58308;SDS011;44117;57.142;24.826;2022-11-15T07:35:49;155.88;;;21.95;;
58308;SDS011;44117;57.142;24.826;2022-11-15T07:38:16;112.32;;;19.55;;
58308;SDS011;44117;57.142;24.826;2022-11-15T07:40:47;99.72;;;17.95;;
58308;SDS011;44117;57.142;24.826;2022-11-15T07:43:21;95.20;;;17.92;;
58308;SDS011;44117;57.142;24.826;2022-11-15T07:45:49;77.43;;;17.77;;
58308;SDS011;44117;57.142;24.826;2022-11-15T07:48:24;81.53;;;18.45;;
58308;SDS011;44117;57.142;24.826;2022-11-15T07:51:10;100.20;;;20.90;;
58308;SDS011;44117;57.142;24.826;2022-11-15T07:56:09;84.50;;;18.75;;
58308;SDS011;44117;57.142;24.826;2022-11-15T07:58:37;94.53;;;20.60;;
58308;SDS011;44117;57.142;24.826;2022-11-15T08:01:04;79.97;;;18.17;;
58308;SDS011;44117;57.142;24.826;2022-11-15T08:03:32;95.68;;;23.60;;
58308;SDS011;44117;57.142;24.826;2022-11-15T08:06:01;92.53;;;21.52;;
58308;SDS011;44117;57.142;24.826;2022-11-15T08:08:28;85.78;;;21.42;;
58308;SDS011;44117;57.142;24.826;2022-11-15T08:10:57;78.70;;;22.80;;
58308;SDS011;44117;57.142;24.826;2022-11-15T08:13:25;77.38;;;18.40;;
58308;SDS011;44117;57.142;24.826;2022-11-15T08:15:56;110.95;;;33.53;;
58308;SDS011;44117;57.142;24.826;2022-11-15T08:18:25;70.63;;;18.70;;
58308;SDS011;44117;57.142;24.826;2022-11-15T08:20:52;78.03;;;20.77;;
58308;SDS011;44117;57.142;24.826;2022-11-15T08:23:19;76.50;;;23.23;;
58308;SDS011;44117;57.142;24.826;2022-11-15T08:25:47;82.55;;;22.60;;
58308;SDS011;44117;57.142;24.826;2022-11-15T08:28:15;87.32;;;22.30;;
58308;SDS011;44117;57.142;24.826;2022-11-15T08:30:43;67.70;;;17.45;;
58308;SDS011;44117;57.142;24.826;2022-11-15T08:33:12;69.25;;;17.75;;
58308;SDS011;44117;57.142;24.826;2022-11-15T08:35:41;113.03;;;64.55;;
58308;SDS011;44117;57.142;24.826;2022-11-15T08:38:09;72.78;;;28.33;;
58308;SDS011;44117;57.142;24.826;2022-11-15T08:40:37;88.72;;;21.50;;
58308;SDS011;44117;57.142;24.826;2022-11-15T08:43:04;136.73;;;33.90;;
58308;SDS011;44117;57.142;24.826;2022-11-15T08:45:33;82.28;;;22.23;;
58308;SDS011;44117;57.142;24.826;2022-11-15T08:48:02;104.57;;;26.80;;
58308;SDS011;44117;57.142;24.826;2022-11-15T08:50:30;147.13;;;40.22;;
58308;SDS011;44117;57.142;24.826;2022-11-15T08:52:57;221.00;;;57.95;;
58308;SDS011;44117;57.142;24.826;2022-11-15T08:55:24;64.00;;;18.55;;
58308;SDS011;44117;57.142;24.826;2022-11-15T08:57:51;62.10;;;20.40;;
58308;SDS011;44117;57.142;24.826;2022-11-15T09:00:19;65.35;;;20.70;;
58308;SDS011;44117;57.142;24.826;2022-11-15T09:02:46;65.20;;;20.00;;
58308;SDS011;44117;57.142;24.826;2022-11-15T09:05:13;99.07;;;26.92;;
58308;SDS011;44117;57.142;24.826;2022-11-15T09:07:42;116.20;;;35.15;;
58308;SDS011;44117;57.142;24.826;2022-11-15T09:10:09;71.53;;;23.08;;
58308;SDS011;44117;57.142;24.826;2022-11-15T09:12:37;161.20;;;42.83;;
58308;SDS011;44117;57.142;24.826;2022-11-15T09:15:04;151.20;;;38.75;;
58308;SDS011;44117;57.142;24.826;2022-11-15T09:17:32;136.98;;;41.10;;
58308;SDS011;44117;57.142;24.826;2022-11-15T09:19:59;79.78;;;29.08;;
58308;SDS011;44117;57.142;24.826;2022-11-15T09:22:27;160.27;;;47.63;;
58308;SDS011;44117;57.142;24.826;2022-11-15T09:24:54;119.60;;;37.60;;
58308;SDS011;44117;57.142;24.826;2022-11-15T09:27:22;318.13;;;92.22;;
58308;SDS011;44117;57.142;24.826;2022-11-15T09:29:49;35.28;;;13.25;;
58308;SDS011;44117;57.142;24.826;2022-11-15T09:32:16;190.63;;;47.88;;
58308;SDS011;44117;57.142;24.826;2022-11-15T09:34:43;398.80;;;100.38;;
58308;SDS011;44117;57.142;24.826;2022-11-15T09:37:11;66.45;;;22.67;;
58308;SDS011;44117;57.142;24.826;2022-11-15T09:39:38;145.13;;;34.63;;
58308;SDS011;44117;57.142;24.826;2022-11-15T09:44:43;281.40;;;62.42;;
58308;SDS011;44117;57.142;24.826;2022-11-15T09:47:30;34.50;;;14.55;;
58308;SDS011;44117;57.142;24.826;2022-11-15T09:51:08;64.03;;;20.52;;
58308;SDS011;44117;57.142;24.826;2022-11-15T09:53:14;336.58;;;66.65;;
58308;SDS011;44117;57.142;24.826;2022-11-15T09:56:19;631.63;;;146.23;;
58308;SDS011;44117;57.142;24.826;2022-11-15T10:01:36;937.45;;;248.80;;
58308;SDS011;44117;57.142;24.826;2022-11-15T10:04:11;176.85;;;43.90;;
58308;SDS011;44117;57.142;24.826;2022-11-15T10:06:42;663.47;;;178.25;;
58308;SDS011;44117;57.142;24.826;2022-11-15T10:09:19;51.45;;;16.17;;
58308;SDS011;44117;57.142;24.826;2022-11-15T10:11:55;18.83;;;8.70;;
58308;SDS011;44117;57.142;24.826;2022-11-15T10:14:23;29.80;;;11.60;;
58308;SDS011;44117;57.142;24.826;2022-11-15T10:17:06;19.20;;;8.35;;
58308;SDS011;44117;57.142;24.826;2022-11-15T10:25:16;44.35;;;11.27;;
58308;SDS011;44117;57.142;24.826;2022-11-15T10:27:44;48.88;;;13.23;;
58308;SDS011;44117;57.142;24.826;2022-11-15T10:30:23;23.10;;;8.38;;
58308;SDS011;44117;57.142;24.826;2022-11-15T10:32:56;33.67;;;8.93;;
58308;SDS011;44117;57.142;24.826;2022-11-15T10:37:50;173.20;;;16.10;;
58308;SDS011;44117;57.142;24.826;2022-11-15T10:40:21;122.82;;;13.05;;
58308;SDS011;44117;57.142;24.826;2022-11-15T10:45:35;163.55;;;16.35;;
58308;SDS011;44117;57.142;24.826;2022-11-15T10:50:41;14.18;;;6.70;;
58308;SDS011;44117;57.142;24.826;2022-11-15T10:55:46;9.23;;;5.40;;
58308;SDS011;44117;57.142;24.826;2022-11-15T10:58:20;10.20;;;5.55;;
58308;SDS011;44117;57.142;24.826;2022-11-15T11:00:48;8.02;;;5.32;;
58308;SDS011;44117;57.142;24.826;2022-11-15T11:03:29;7.65;;;4.60;;
58308;SDS011;44117;57.142;24.826;2022-11-15T11:08:33;8.68;;;4.10;;
58308;SDS011;44117;57.142;24.826;2022-11-15T11:11:01;6.60;;;4.13;;
58308;SDS011;44117;57.142;24.826;2022-11-15T11:13:31;6.38;;;3.83;;
58308;SDS011;44117;57.142;24.826;2022-11-15T11:21:43;6.15;;;3.78;;
58308;SDS011;44117;57.142;24.826;2022-11-15T11:24:27;4.97;;;3.03;;
58308;SDS011;44117;57.142;24.826;2022-11-15T11:30:29;3.58;;;2.30;;
58308;SDS011;44117;57.142;24.826;2022-11-15T11:33:20;4.22;;;2.08;;
58308;SDS011;44117;57.142;24.826;2022-11-15T11:38:51;2.53;;;1.83;;
58308;SDS011;44117;57.142;24.826;2022-11-15T11:44:05;3.17;;;1.80;;
58308;SDS011;44117;57.142;24.826;2022-11-15T11:46:51;4.55;;;1.70;;
58308;SDS011;44117;57.142;24.826;2022-11-15T11:49:36;1.25;;;1.15;;
58308;SDS011;44117;57.142;24.826;2022-11-15T11:52:10;4.35;;;1.73;;
58308;SDS011;44117;57.142;24.826;2022-11-15T11:55:12;28.10;;;4.53;;
58308;SDS011;44117;57.142;24.826;2022-11-15T12:00:59;2.78;;;1.00;;
58308;SDS011;44117;57.142;24.826;2022-11-15T12:03:47;0.80;;;0.80;;
58308;SDS011;44117;57.142;24.826;2022-11-15T12:06:44;0.85;;;0.85;;
58308;SDS011;44117;57.142;24.826;2022-11-15T12:09:43;1.02;;;0.73;;
58308;SDS011;44117;57.142;24.826;2022-11-15T12:12:27;2.15;;;1.10;;
58308;SDS011;44117;57.142;24.826;2022-11-15T12:15:18;1.75;;;1.00;;
58308;SDS011;44117;57.142;24.826;2022-11-15T12:17:55;2.42;;;1.00;;
58308;SDS011;44117;57.142;24.826;2022-11-15T12:20:33;1.48;;;0.90;;
58308;SDS011;44117;57.142;24.826;2022-11-15T12:23:38;3.13;;;1.50;;
58308;SDS011;44117;57.142;24.826;2022-11-15T12:26:24;2.92;;;1.63;;
58308;SDS011;44117;57.142;24.826;2022-11-15T12:28:58;0.70;;;0.70;;
58308;SDS011;44117;57.142;24.826;2022-11-15T12:34:01;1.40;;;1.10;;
58308;SDS011;44117;57.142;24.826;2022-11-15T12:36:37;3.47;;;2.78;;
58308;SDS011;44117;57.142;24.826;2022-11-15T12:39:10;4.57;;;2.90;;
58308;SDS011;44117;57.142;24.826;2022-11-15T12:41:39;0.93;;;0.93;;
58308;SDS011;44117;57.142;24.826;2022-11-15T12:44:12;1.40;;;1.00;;
58308;SDS011;44117;57.142;24.826;2022-11-15T12:47:01;1.20;;;1.00;;
58308;SDS011;44117;57.142;24.826;2022-11-15T12:49:48;0.77;;;0.77;;
58308;SDS011;44117;57.142;24.826;2022-11-15T12:52:17;2.03;;;0.85;;
58308;SDS011;44117;57.142;24.826;2022-11-15T12:54:55;1.13;;;0.70;;
58308;SDS011;44117;57.142;24.826;2022-11-15T12:57:36;0.95;;;0.80;;
58308;SDS011;44117;57.142;24.826;2022-11-15T13:02:44;0.98;;;0.70;;
58308;SDS011;44117;57.142;24.826;2022-11-15T13:25:45;0.63;;;0.63;;
58308;SDS011;44117;57.142;24.826;2022-11-15T13:28:28;0.90;;;0.80;;
58308;SDS011;44117;57.142;24.826;2022-11-15T13:31:01;1.20;;;0.80;;
58308;SDS011;44117;57.142;24.826;2022-11-15T13:33:40;8.18;;;1.00;;
58308;SDS011;44117;57.142;24.826;2022-11-15T13:36:15;1.55;;;0.80;;
58308;SDS011;44117;57.142;24.826;2022-11-15T13:39:25;3.42;;;1.00;;
58308;SDS011;44117;57.142;24.826;2022-11-15T13:41:55;1.88;;;1.05;;
58308;SDS011;44117;57.142;24.826;2022-11-15T13:44:29;0.70;;;0.70;;
58308;SDS011;44117;57.142;24.826;2022-11-15T13:47:02;5.82;;;1.00;;
58308;SDS011;44117;57.142;24.826;2022-11-15T13:49:39;0.90;;;0.90;;
58308;SDS011;44117;57.142;24.826;2022-11-15T13:52:08;5.82;;;3.63;;
58308;SDS011;44117;57.142;24.826;2022-11-15T13:54:47;0.85;;;0.80;;
58308;SDS011;44117;57.142;24.826;2022-11-15T13:59:57;0.80;;;0.80;;
58308;SDS011;44117;57.142;24.826;2022-11-15T14:02:33;1.80;;;1.60;;
58308;SDS011;44117;57.142;24.826;2022-11-15T14:07:40;1.25;;;1.15;;
58308;SDS011;44117;57.142;24.826;2022-11-15T14:10:28;1.67;;;1.30;;
58308;SDS011;44117;57.142;24.826;2022-11-15T14:12:57;2.75;;;1.17;;
58308;SDS011;44117;57.142;24.826;2022-11-15T14:15:27;1.02;;;1.00;;
58308;SDS011;44117;57.142;24.826;2022-11-15T14:18:00;1.30;;;0.90;;
58308;SDS011;44117;57.142;24.826;2022-11-15T14:20:30;4.75;;;2.58;;
58308;SDS011;44117;57.142;24.826;2022-11-15T14:23:01;1.80;;;1.15;;
58308;SDS011;44117;57.142;24.826;2022-11-15T14:25:52;1.65;;;1.42;;
58308;SDS011;44117;57.142;24.826;2022-11-15T14:30:51;1.10;;;1.00;;
58308;SDS011;44117;57.142;24.826;2022-11-15T14:33:32;1.58;;;1.25;;
58308;SDS011;44117;57.142;24.826;2022-11-15T14:38:32;2.15;;;1.27;;
58308;SDS011;44117;57.142;24.826;2022-11-15T14:41:00;3.00;;;1.40;;
58308;SDS011;44117;57.142;24.826;2022-11-15T14:43:27;1.70;;;1.58;;
58308;SDS011;44117;57.142;24.826;2022-11-15T14:45:54;1.42;;;1.20;;
58308;SDS011;44117;57.142;24.826;2022-11-15T14:48:21;2.00;;;1.70;;
58308;SDS011;44117;57.142;24.826;2022-11-15T14:50:49;3.10;;;2.45;;
58308;SDS011;44117;57.142;24.826;2022-11-15T14:53:16;3.20;;;2.03;;
58308;SDS011;44117;57.142;24.826;2022-11-15T14:55:45;5.55;;;1.67;;
58308;SDS011;44117;57.142;24.826;2022-11-15T14:58:12;2.05;;;1.40;;
58308;SDS011;44117;57.142;24.826;2022-11-15T15:00:40;2.05;;;1.20;;
58308;SDS011;44117;57.142;24.826;2022-11-15T15:03:07;2.38;;;1.50;;
58308;SDS011;44117;57.142;24.826;2022-11-15T15:05:36;1.67;;;1.17;;
58308;SDS011;44117;57.142;24.826;2022-11-15T15:08:05;1.35;;;1.20;;
58308;SDS011;44117;57.142;24.826;2022-11-15T15:10:34;2.65;;;1.92;;
58308;SDS011;44117;57.142;24.826;2022-11-15T15:13:16;1.52;;;1.20;;
58308;SDS011;44117;57.142;24.826;2022-11-15T15:15:45;4.60;;;1.90;;
58308;SDS011;44117;57.142;24.826;2022-11-15T15:18:13;1.30;;;1.20;;
58308;SDS011;44117;57.142;24.826;2022-11-15T15:20:42;2.80;;;2.30;;
58308;SDS011;44117;57.142;24.826;2022-11-15T15:23:16;2.90;;;2.00;;
58308;SDS011;44117;57.142;24.826;2022-11-15T15:25:45;3.05;;;2.22;;
58308;SDS011;44117;57.142;24.826;2022-11-15T15:28:14;3.13;;;2.20;;
58308;SDS011;44117;57.142;24.826;2022-11-15T15:30:41;2.58;;;1.63;;
58308;SDS011;44117;57.142;24.826;2022-11-15T15:33:09;3.28;;;1.90;;
58308;SDS011;44117;57.142;24.826;2022-11-15T15:35:37;3.13;;;1.70;;
58308;SDS011;44117;57.142;24.826;2022-11-15T15:38:04;2.97;;;2.10;;
58308;SDS011;44117;57.142;24.826;2022-11-15T15:40:32;1.58;;;1.48;;
58308;SDS011;44117;57.142;24.826;2022-11-15T15:43:00;2.47;;;1.80;;
58308;SDS011;44117;57.142;24.826;2022-11-15T15:45:27;1.40;;;1.30;;
58308;SDS011;44117;57.142;24.826;2022-11-15T15:47:56;1.73;;;1.60;;
58308;SDS011;44117;57.142;24.826;2022-11-15T15:52:51;7.25;;;3.45;;
58308;SDS011;44117;57.142;24.826;2022-11-15T15:55:20;4.15;;;1.90;;
58308;SDS011;44117;57.142;24.826;2022-11-15T15:57:48;6.15;;;3.63;;
58308;SDS011;44117;57.142;24.826;2022-11-15T16:00:16;5.68;;;3.65;;
58308;SDS011;44117;57.142;24.826;2022-11-15T16:02:44;4.18;;;2.83;;
58308;SDS011;44117;57.142;24.826;2022-11-15T16:05:12;6.85;;;3.35;;
58308;SDS011;44117;57.142;24.826;2022-11-15T16:07:39;3.72;;;2.58;;
58308;SDS011;44117;57.142;24.826;2022-11-15T16:10:31;2.55;;;2.30;;
58308;SDS011;44117;57.142;24.826;2022-11-15T16:13:03;3.08;;;2.42;;